Time;durP1;ratioP1;P1;durP2;ratioP2;P2;SDS_P1;SDS_P2;PMS_P1;PMS_P2;Temp;Humidity;BMP_temperature;BMP_pressure;BME280_temperature;BME280_humidity;BME280_pressure;Samples;Min_cycle;Max_cycle;Signal;HPM_P1;HPM_P2
2023/06/14 00:00:31;;;;;;;13.85;3.28;;;19.10;90.30;;;;;;5094216;28;20444;-69
2023/06/14 00:02:58;;;;;;;11.13;3.15;;;19.50;90.40;;;;;;5086040;28;20056;-70
2023/06/14 00:05:24;;;;;;;11.55;3.38;;;17.40;90.10;;;;;;5057083;28;20040;-70
2023/06/14 00:07:53;;;;;;;7.10;3.00;;;;;;;;;;5079424;28;20047;-70
2023/06/14 00:10:19;;;;;;;8.70;3.60;;;19.00;90.60;;;;;;5077636;28;20105;-70
2023/06/14 00:12:45;;;;;;;9.38;3.10;;;18.70;90.70;;;;;;5093646;28;20513;-70
2023/06/14 00:15:11;;;;;;;7.60;3.28;;;;;;;;;;5093649;28;20040;-70
2023/06/14 00:17:38;;;;;;;8.00;3.03;;;;;;;;;;5073010;28;20040;-70
2023/06/14 00:20:06;;;;;;;8.70;3.60;;;19.10;91.20;;;;;;5073233;28;20242;-70
2023/06/14 00:22:32;;;;;;;11.75;2.92;;;17.40;90.90;;;;;;5065451;28;20061;-69
2023/06/14 00:24:59;;;;;;;7.13;2.90;;;;;;;;;;5056618;28;20749;-69
2023/06/14 00:27:24;;;;;;;15.82;3.13;;;17.30;91.00;;;;;;5091302;28;20110;-69
2023/06/14 00:29:51;;;;;;;5.95;2.72;;;;;;;;;;5076488;28;20048;-70
2023/06/14 00:32:18;;;;;;;8.77;3.20;;;18.50;91.50;;;;;;5075529;28;20052;-70
2023/06/14 00:34:44;;;;;;;9.55;3.13;;;18.40;91.60;;;;;;5092817;28;20040;-72
2023/06/14 00:37:09;;;;;;;10.88;3.15;;;18.50;91.60;;;;;;5093630;28;20047;-71
2023/06/14 00:39:35;;;;;;;7.55;2.85;;;;;;;;;;5093159;28;20079;-69
2023/06/14 00:42:01;;;;;;;8.00;2.97;;;16.80;91.40;;;;;;5092546;28;20043;-70
2023/06/14 00:44:27;;;;;;;8.95;3.00;;;;;;;;;;5075828;28;20115;-70
2023/06/14 00:46:53;;;;;;;7.28;2.78;;;16.80;91.30;;;;;;5094455;28;20141;-70
2023/06/14 00:49:21;;;;;;;8.18;3.03;;;17.70;85.40;;;;;;5078211;28;20040;-70
2023/06/14 00:51:47;;;;;;;10.30;3.10;;;18.40;91.80;;;;;;5088976;28;20055;-70
2023/06/14 00:54:13;;;;;;;6.28;2.75;;;;;;;;;;5087237;28;20032;-70
2023/06/14 00:56:40;;;;;;;14.65;2.85;;;18.30;91.40;;;;;;5092749;28;20047;-70
2023/06/14 00:59:06;;;;;;;7.72;3.15;;;16.20;92.10;;;;;;5081819;28;20055;-70
2023/06/14 01:01:35;;;;;;;7.38;2.70;;;;;;;;;;5072321;28;20048;-69
2023/06/14 01:04:03;;;;;;;6.10;2.70;;;18.20;92.80;;;;;;5072596;28;20032;-69
2023/06/14 01:06:30;;;;;;;7.32;2.90;;;;;;;;;;5072401;28;20090;-69
2023/06/14 01:09:17;;;;;;;8.77;3.00;;;;;;;;;;5080701;28;20038;-70
2023/06/14 01:12:09;;;;;;;7.07;3.17;;;16.20;92.80;;;;;;5092170;28;20074;-69
2023/06/14 01:14:36;;;;;;;7.35;2.78;;;16.10;92.90;;;;;;5079048;28;20403;-69
2023/06/14 01:17:02;;;;;;;8.50;3.08;;;17.40;92.80;;;;;;5092488;28;20050;-69
2023/06/14 01:19:28;;;;;;;13.25;3.10;;;16.20;93.20;;;;;;5063593;28;20040;-70
2023/06/14 01:21:59;;;;;;;9.52;3.03;;;18.10;93.80;;;;;;5072432;28;20090;-70
2023/06/14 01:24:31;;;;;;;6.72;2.53;;;15.90;93.50;;;;;;5083003;28;20495;-70
2023/06/14 01:26:59;;;;;;;8.68;3.03;;;17.00;90.20;;;;;;5092782;28;20443;-70
2023/06/14 01:29:27;;;;;;;6.07;2.75;;;18.20;94.40;;;;;;5075341;28;20035;-70
2023/06/14 01:31:54;;;;;;;6.63;2.85;;;16.70;90.10;;;;;;5091922;28;20054;-70
2023/06/14 01:34:20;;;;;;;5.93;2.45;;;18.00;94.60;;;;;;5092332;28;20518;-70
2023/06/14 01:36:47;;;;;;;6.20;2.85;;;18.10;94.00;;;;;;5092429;28;20058;-70
2023/06/14 01:39:15;;;;;;;6.85;2.90;;;16.30;94.00;;;;;;5085985;28;20192;-70
2023/06/14 01:41:42;;;;;;;7.55;2.78;;;17.80;92.20;;;;;;5072563;28;20101;-70
2023/06/14 01:44:09;;;;;;;7.43;2.50;;;16.40;94.80;;;;;;5091146;28;20036;-71
2023/06/14 01:46:36;;;;;;;5.25;2.85;;;17.90;91.90;;;;;;5073084;28;20512;-70
2023/06/14 01:49:02;;;;;;;8.05;2.97;;;15.90;95.00;;;;;;5072083;28;20090;-70
2023/06/14 01:51:27;;;;;;;5.60;2.70;;;15.70;95.00;;;;;;5072972;28;20048;-70
2023/06/14 01:53:55;;;;;;;7.70;3.05;;;;;;;;;;5093045;28;20044;-70
2023/06/14 01:56:21;;;;;;;8.38;2.78;;;;;;;;;;5092312;28;20055;-70
2023/06/14 01:58:48;;;;;;;4.90;2.25;;;16.90;95.60;;;;;;5083469;28;20119;-70
2023/06/14 02:01:16;;;;;;;6.38;2.83;;;;;;;;;;5071969;28;20094;-70
2023/06/14 02:03:42;;;;;;;5.07;2.65;;;17.60;96.00;;;;;;5074452;28;20097;-70
2023/06/14 02:06:08;;;;;;;6.57;2.72;;;17.50;96.20;;;;;;5075010;28;20032;-70
2023/06/14 02:08:33;;;;;;;9.38;2.78;;;17.70;96.30;;;;;;5084212;28;20102;-70
2023/06/14 02:10:59;;;;;;;5.82;2.70;;;;;;;;;;5070627;28;20087;-70
2023/06/14 02:13:25;;;;;;;6.80;2.70;;;17.00;95.50;;;;;;5091956;28;20051;-70
2023/06/14 02:15:54;;;;;;;9.10;2.80;;;;;;;;;;5089335;28;20043;-70
2023/06/14 02:18:21;;;;;;;7.13;2.75;;;17.60;96.80;;;;;;5085009;28;20044;-70
2023/06/14 02:20:47;;;;;;;5.60;2.92;;;;;;;;;;5085421;28;20503;-70
2023/06/14 02:23:13;;;;;;;8.38;2.50;;;;;;;;;;5091778;28;20043;-70
2023/06/14 02:25:40;;;;;;;7.03;2.58;;;17.10;97.10;;;;;;5074934;28;20051;-70
2023/06/14 02:28:06;;;;;;;5.72;2.90;;;;;;;;;;5091472;28;20048;-70
2023/06/14 02:30:32;;;;;;;8.48;2.78;;;;;;;;;;5091342;28;20132;-70
2023/06/14 02:32:59;;;;;;;6.80;2.70;;;;;;;;;;5091949;28;20044;-70
2023/06/14 02:35:26;;;;;;;11.57;3.00;;;15.10;97.10;;;;;;5091459;28;20158;-70
2023/06/14 02:37:52;;;;;;;5.40;2.83;;;;;;;;;;5072181;28;20036;-70
2023/06/14 02:40:19;;;;;;;8.10;2.55;;;17.20;96.00;;;;;;5061201;28;20048;-70
2023/06/14 02:42:45;;;;;;;6.45;2.78;;;15.80;97.50;;;;;;5074783;28;20047;-70
2023/06/14 02:45:11;;;;;;;6.18;2.60;;;;;;;;;;5084430;28;20110;-70
2023/06/14 02:47:37;;;;;;;6.82;2.90;;;;;;;;;;5071319;28;20044;-70
2023/06/14 02:50:03;;;;;;;7.70;2.65;;;17.00;98.10;;;;;;5071248;28;20255;-70
2023/06/14 02:52:29;;;;;;;8.10;2.58;;;;;;;;;;5084054;28;20044;-70
2023/06/14 02:54:55;;;;;;;8.25;3.13;;;;;;;;;;5090946;28;20036;-70
2023/06/14 02:57:22;;;;;;;6.53;3.45;;;16.00;94.10;;;;;;5094237;28;20395;-70
2023/06/14 02:59:49;;;;;;;5.97;2.97;;;15.10;98.10;;;;;;5094967;28;20053;-70
2023/06/14 03:02:15;;;;;;;7.15;3.33;;;;;;;;;;5068573;28;20052;-70
2023/06/14 03:04:43;;;;;;;6.68;2.80;;;15.20;98.20;;;;;;5081887;28;20097;-70
2023/06/14 03:07:09;;;;;;;7.35;3.03;;;;;;;;;;5076666;28;20052;-69
2023/06/14 03:09:39;;;;;;;8.82;3.45;;;15.90;94.80;;;;;;5074895;28;20044;-70
2023/06/14 03:12:09;;;;;;;5.22;2.80;;;15.70;98.60;;;;;;5080257;28;20052;-70
2023/06/14 03:14:35;;;;;;;10.23;3.10;;;15.00;98.50;;;;;;5048278;28;20040;-70
2023/06/14 03:17:02;;;;;;;6.68;3.08;;;;;;;;;;5076065;28;20157;-67
2023/06/14 03:19:28;;;;;;;7.40;3.05;;;;;;;;;;5074612;28;20400;-68
2023/06/14 03:21:57;;;;;;;5.38;3.10;;;;;;;;;;5074651;28;20044;-68
2023/06/14 03:24:24;;;;;;;14.95;8.10;;;16.10;95.30;;;;;;5074515;28;20040;-70
2023/06/14 03:26:50;;;;;;;13.15;8.50;;;16.70;99.30;;;;;;5074240;28;20119;-70
2023/06/14 03:29:16;;;;;;;14.23;10.13;;;16.50;99.20;;;;;;5058081;28;20178;-75
2023/06/14 03:31:58;;;;;;;10.70;7.80;;;16.30;95.60;;;;;;5060960;28;20493;-70
2023/06/14 03:34:23;;;;;;;13.02;6.60;;;17.30;99.30;;;;;;5093863;28;20052;-71
2023/06/14 03:36:49;;;;;;;8.32;3.90;;;15.10;98.70;;;;;;5094465;28;20055;-68
2023/06/14 03:39:15;;;;;;;13.52;3.60;;;;;;;;;;5094339;28;20509;-70
2023/06/14 03:41:41;;;;;;;6.80;4.00;;;;;;;;;;5090179;28;20040;-70
2023/06/14 03:44:07;;;;;;;7.40;3.60;;;;;;;;;;5080716;28;20391;-71
2023/06/14 03:46:33;;;;;;;13.02;4.05;;;17.10;96.20;;;;;;5085691;28;20087;-70
2023/06/14 03:49:00;;;;;;;9.07;3.40;;;15.70;99.20;;;;;;5054467;28;20365;-71
2023/06/14 03:51:26;;;;;;;10.82;4.30;;;;;;;;;;5077053;28;20496;-70
2023/06/14 03:53:52;;;;;;;11.15;3.80;;;;;;;;;;5086440;28;20040;-70
2023/06/14 03:56:18;;;;;;;12.10;4.25;;;;;;;;;;5074644;28;20045;-70
2023/06/14 03:58:45;;;;;;;9.43;3.80;;;;;;;;;;5079990;28;20044;-68
2023/06/14 04:01:12;;;;;;;8.52;3.90;;;;;;;;;;5073604;28;20044;-67
2023/06/14 04:03:40;;;;;;;7.28;4.28;;;;;;;;;;5083401;28;20082;-67
2023/06/14 04:06:06;;;;;;;19.40;5.50;;;16.80;99.90;;;;;;5070426;28;20131;-66
2023/06/14 04:08:32;;;;;;;12.85;4.07;;;;;;;;;;5073852;28;20051;-69
2023/06/14 04:10:58;;;;;;;11.10;3.88;;;;;;;;;;5089896;28;20064;-69
2023/06/14 04:13:24;;;;;;;13.32;4.53;;;;;;;;;;5083722;28;20044;-69
2023/06/14 04:15:50;;;;;;;8.93;3.88;;;;;;;;;;5093677;28;20483;-69
2023/06/14 04:18:17;;;;;;;14.07;4.05;;;;;;;;;;5076364;28;20055;-72
2023/06/14 04:20:44;;;;;;;10.98;3.80;;;;;;;;;;5057027;28;20050;-73
2023/06/14 04:23:21;;;;;;;7.43;3.95;;;15.70;99.90;;;;;;5073549;28;20075;-72
2023/06/14 04:25:49;;;;;;;6.72;3.67;;;;;;;;;;5056691;28;20042;-71
2023/06/14 04:28:19;;;;;;;12.32;4.50;;;15.20;99.90;;;;;;5073439;28;20119;-69
2023/06/14 04:30:47;;;;;;;11.27;4.45;;;;;;;;;;5092910;28;20476;-71
2023/06/14 04:33:13;;;;;;;11.63;4.30;;;;;;;;;;5093258;28;20036;-70
2023/06/14 04:35:40;;;;;;;9.82;4.28;;;16.10;99.90;;;;;;5076578;28;20123;-70
2023/06/14 04:38:09;;;;;;;11.32;4.35;;;17.10;99.90;;;;;;5094389;28;20028;-68
2023/06/14 04:40:42;;;;;;;9.93;4.50;;;;;;;;;;5093399;28;20119;-67
2023/06/14 04:43:08;;;;;;;12.65;5.05;;;16.80;99.90;;;;;;5076068;28;20400;-67
2023/06/14 04:45:36;;;;;;;9.02;4.78;;;;;;;;;;5076262;28;20076;-68
2023/06/14 04:48:02;;;;;;;7.88;3.90;;;;;;;;;;5070477;28;20124;-68
2023/06/14 04:50:29;;;;;;;7.82;4.40;;;;;;;;;;5080928;28;20044;-68
2023/06/14 04:52:56;;;;;;;14.23;5.63;;;;;;;;;;5080294;28;20123;-67
2023/06/14 04:55:23;;;;;;;14.02;4.90;;;;;;;;;;5072566;28;20396;-68
2023/06/14 04:57:52;;;;;;;11.30;5.05;;;;;;;;;;5091424;28;20040;-68
2023/06/14 05:00:19;;;;;;;11.38;4.90;;;16.40;99.90;;;;;;5092743;28;20044;-67
2023/06/14 05:02:46;;;;;;;11.23;5.00;;;;;;;;;;5092514;28;20059;-67
2023/06/14 05:05:13;;;;;;;9.27;5.90;;;;;;;;;;5092572;28;20035;-67
2023/06/14 05:07:39;;;;;;;11.45;5.20;;;;;;;;;;5075806;28;20051;-68
2023/06/14 05:10:05;;;;;;;13.13;6.25;;;16.20;97.30;;;;;;5092541;28;20126;-67
2023/06/14 05:12:32;;;;;;;12.88;5.18;;;;;;;;;;5092506;28;20040;-68
2023/06/14 05:14:58;;;;;;;9.07;4.85;;;15.10;99.90;;;;;;5092692;28;20484;-67
2023/06/14 05:17:24;;;;;;;10.27;4.88;;;;;;;;;;5092675;28;20052;-68
2023/06/14 05:19:50;;;;;;;11.50;5.63;;;;;;;;;;5075180;28;20044;-68
2023/06/14 05:22:17;;;;;;;15.82;5.90;;;;;;;;;;5092606;28;20036;-67
2023/06/14 05:24:43;;;;;;;8.18;5.35;;;;;;;;;;5092447;28;20409;-70
2023/06/14 05:27:09;;;;;;;16.42;6.07;;;;;;;;;;5092464;28;20360;-70
2023/06/14 05:29:36;;;;;;;13.98;6.25;;;;;;;;;;5075730;28;20046;-70
2023/06/14 05:32:02;;;;;;;14.50;6.03;;;;;;;;;;5093568;28;20142;-70
2023/06/14 05:34:27;;;;;;;16.40;6.57;;;16.70;99.90;;;;;;5092321;28;20043;-71
2023/06/14 05:36:53;;;;;;;19.23;6.80;;;15.80;99.90;;;;;;5092497;28;20044;-70
2023/06/14 05:39:19;;;;;;;19.00;6.75;;;15.60;99.90;;;;;;5093336;28;20396;-70
2023/06/14 05:41:45;;;;;;;14.00;6.18;;;;;;;;;;5093423;28;20051;-68
2023/06/14 05:44:11;;;;;;;16.48;6.80;;;;;;;;;;5091923;28;20032;-67
2023/06/14 05:46:39;;;;;;;15.25;6.55;;;;;;;;;;5092092;28;20127;-70
2023/06/14 05:49:06;;;;;;;17.88;6.90;;;;;;;;;;5092241;28;20509;-69
2023/06/14 05:51:32;;;;;;;22.80;7.32;;;;;;;;;;5092405;28;20429;-68
2023/06/14 05:53:58;;;;;;;15.77;7.03;;;;;;;;;;5092338;28;20036;-69
2023/06/14 05:56:25;;;;;;;20.88;6.80;;;;;;;;;;5092262;28;20087;-69
2023/06/14 05:58:51;;;;;;;17.95;6.75;;;;;;;;;;5080699;28;20423;-68
2023/06/14 06:01:17;;;;;;;17.25;7.03;;;;;;;;;;5055127;28;20390;-69
2023/06/14 06:03:47;;;;;;;18.13;7.57;;;;;;;;;;5056370;28;20048;-68
2023/06/14 06:06:13;;;;;;;16.95;7.72;;;;;;;;;;5072354;28;20113;-69
2023/06/14 06:08:40;;;;;;;18.25;7.35;;;17.00;99.90;;;;;;5073042;28;20037;-69
2023/06/14 06:11:06;;;;;;;26.92;7.85;;;18.00;99.90;;;;;;5073406;28;20048;-68
2023/06/14 06:13:32;;;;;;;18.83;6.95;;;16.00;99.90;;;;;;5091504;28;20040;-68
2023/06/14 06:15:58;;;;;;;23.33;8.02;;;;;;;;;;5090723;28;20071;-68
2023/06/14 06:18:24;;;;;;;15.85;7.00;;;;;;;;;;5055021;28;20045;-68
2023/06/14 06:20:51;;;;;;;17.35;7.65;;;;;;;;;;5084098;28;20040;-70
2023/06/14 06:23:16;;;;;;;22.35;7.57;;;17.20;99.90;;;;;;5088835;28;20384;-68
2023/06/14 06:25:43;;;;;;;19.70;7.70;;;17.10;96.10;;;;;;5069827;28;20036;-74
2023/06/14 06:28:09;;;;;;;21.48;7.72;;;;;;;;;;5064049;28;20037;-68
2023/06/14 06:30:36;;;;;;;18.83;7.75;;;;;;;;;;5071242;28;20033;-68
2023/06/14 06:33:03;;;;;;;20.33;7.53;;;;;;;;;;5092583;28;20043;-68
2023/06/14 06:35:30;;;;;;;21.40;7.47;;;17.80;99.90;;;;;;5095513;28;20040;-68
2023/06/14 06:37:57;;;;;;;18.48;7.40;;;;;;;;;;5072629;28;20036;-68
2023/06/14 06:40:23;;;;;;;15.55;7.30;;;;;;;;;;5090175;28;20501;-70
2023/06/14 06:42:50;;;;;;;16.73;7.40;;;;;;;;;;5075970;28;20040;-70
2023/06/14 06:45:16;;;;;;;24.40;7.50;;;;;;;;;;5075075;28;20519;-72
2023/06/14 06:47:42;;;;;;;19.52;7.63;;;;;;;;;;5085487;28;20043;-72
2023/06/14 06:50:08;;;;;;;17.95;8.10;;;;;;;;;;5080436;28;20045;-71
2023/06/14 06:52:35;;;;;;;17.00;7.82;;;;;;;;;;5085054;28;20531;-68
2023/06/14 06:55:02;;;;;;;23.25;7.82;;;17.90;97.20;;;;;;5083757;28;20050;-68
2023/06/14 06:57:29;;;;;;;18.42;6.95;;;;;;;;;;5082293;28;20129;-71
2023/06/14 06:59:55;;;;;;;20.10;7.78;;;;;;;;;;5089649;28;20044;-71
2023/06/14 07:02:21;;;;;;;23.27;7.00;;;18.50;99.90;;;;;;5069797;28;20051;-71
2023/06/14 07:04:47;;;;;;;14.18;7.15;;;19.10;99.80;;;;;;5052160;28;20041;-72
2023/06/14 07:07:13;;;;;;;21.05;6.93;;;;;;;;;;5061848;28;20111;-71
2023/06/14 07:09:39;;;;;;;14.15;7.13;;;18.20;98.40;;;;;;5094874;28;20480;-71
2023/06/14 07:12:05;;;;;;;20.02;8.35;;;18.70;99.20;;;;;;5060149;28;20059;-70
2023/06/14 07:14:30;;;;;;;25.13;7.30;;;18.50;98.90;;;;;;5075106;28;20059;-70
2023/06/14 07:16:56;;;;;;;16.55;8.10;;;;;;;;;;5063261;28;20491;-71
2023/06/14 07:19:22;;;;;;;17.80;7.30;;;;;;;;;;5094554;28;20075;-71
2023/06/14 07:21:49;;;;;;;19.45;6.88;;;;;;;;;;5077696;28;20060;-71
2023/06/14 07:24:15;;;;;;;21.63;7.07;;;18.40;95.40;;;;;;5075852;28;20496;-71
2023/06/14 07:26:40;;;;;;;26.20;7.30;;;18.20;97.50;;;;;;5074637;28;20431;-72
2023/06/14 07:29:07;;;;;;;21.30;8.05;;;;;;;;;;5090355;28;20040;-71
2023/06/14 07:31:33;;;;;;;22.80;7.20;;;;;;;;;;5094453;28;20040;-71
2023/06/14 07:33:58;;;;;;;17.20;7.47;;;19.20;97.10;;;;;;5061641;28;20169;-72
2023/06/14 07:36:25;;;;;;;17.08;6.57;;;;;;;;;;5057779;28;20048;-71
2023/06/14 07:38:50;;;;;;;15.85;7.03;;;18.50;94.90;;;;;;5085793;28;20109;-71
2023/06/14 07:41:17;;;;;;;23.50;7.22;;;;;;;;;;5040725;28;20032;-72
2023/06/14 07:43:42;;;;;;;15.73;6.93;;;19.40;97.40;;;;;;5086644;28;20443;-71
2023/06/14 07:46:09;;;;;;;16.02;6.70;;;19.30;92.40;;;;;;5080863;28;20040;-71
2023/06/14 07:48:35;;;;;;;17.55;6.40;;;;;;;;;;5068628;28;20098;-73
2023/06/14 07:51:01;;;;;;;15.70;7.80;;;19.90;96.90;;;;;;5094894;28;20415;-72
2023/06/14 07:53:27;;;;;;;21.42;7.60;;;;;;;;;;5084517;28;20048;-69
2023/06/14 07:55:53;;;;;;;13.70;6.30;;;;;;;;;;5077019;28;20048;-69
2023/06/14 07:58:19;;;;;;;17.50;7.13;;;20.40;96.50;;;;;;5068362;28;20481;-69
2023/06/14 08:00:46;;;;;;;24.02;6.53;;;20.10;96.40;;;;;;5057121;28;20041;-69
2023/06/14 08:03:12;;;;;;;16.70;6.18;;;;;;;;;;5079777;28;20048;-69
2023/06/14 08:05:37;;;;;;;19.00;6.38;;;20.50;95.90;;;;;;5059384;28;20080;-69
2023/06/14 08:08:03;;;;;;;18.98;6.93;;;20.40;95.80;;;;;;5074819;28;20087;-69
2023/06/14 08:10:29;;;;;;;19.50;6.60;;;;;;;;;;5086337;28;20388;-69
2023/06/14 08:12:55;;;;;;;17.23;6.40;;;;;;;;;;5092345;28;20054;-70
2023/06/14 08:15:21;;;;;;;17.55;6.55;;;20.60;91.20;;;;;;5075206;28;20044;-68
2023/06/14 08:17:47;;;;;;;22.95;6.90;;;;;;;;;;5073163;28;20051;-69
2023/06/14 08:20:15;;;;;;;19.00;6.75;;;21.40;89.20;;;;;;5088549;28;20133;-68
2023/06/14 08:22:42;;;;;;;18.38;8.07;;;;;;;;;;5073006;28;20393;-69
2023/06/14 08:25:08;;;;;;;15.52;6.90;;;21.00;94.60;;;;;;5091051;28;20040;-68
2023/06/14 08:27:34;;;;;;;14.57;7.00;;;21.10;94.50;;;;;;5089680;28;20044;-71
2023/06/14 08:30:02;;;;;;;16.48;6.63;;;;;;;;;;5092866;28;20044;-71
2023/06/14 08:32:27;;;;;;;13.50;6.18;;;20.00;93.70;;;;;;5087818;28;20085;-71
2023/06/14 08:34:53;;;;;;;21.83;7.05;;;19.80;93.40;;;;;;5082891;28;20136;-71
2023/06/14 08:37:19;;;;;;;15.70;6.93;;;20.70;93.30;;;;;;5058845;28;20166;-71
2023/06/14 08:39:46;;;;;;;13.43;6.55;;;20.80;93.10;;;;;;5081223;28;20051;-71
2023/06/14 08:42:14;;;;;;;15.32;7.10;;;21.10;92.90;;;;;;5092550;28;20119;-71
2023/06/14 08:44:40;;;;;;;34.35;8.43;;;;;;;;;;5084592;28;20514;-71
2023/06/14 08:47:08;;;;;;;17.67;6.65;;;21.00;85.80;;;;;;5092995;28;20040;-71
2023/06/14 08:49:37;;;;;;;91.22;8.98;;;21.80;91.50;;;;;;5086833;28;20043;-71
2023/06/14 08:52:08;;;;;;;17.25;6.63;;;21.30;92.40;;;;;;5087535;28;20044;-71
2023/06/14 08:54:36;;;;;;;15.50;6.40;;;20.80;92.10;;;;;;5078943;28;20130;-71
2023/06/14 08:57:06;;;;;;;14.50;6.60;;;21.60;84.30;;;;;;5083057;28;20479;-72
2023/06/14 08:59:38;;;;;;;17.10;6.68;;;22.10;92.10;;;;;;5087938;28;20040;-71
2023/06/14 09:02:05;;;;;;;;;;;21.70;85.10;;;;;;5073911;28;20546;-72
2023/06/14 09:04:32;;;;;;;22.92;6.78;;;21.50;91.20;;;;;;5076948;28;19917;-72
2023/06/14 09:06:58;;;;;;;20.30;6.60;;;21.20;91.20;;;;;;5092366;28;20040;-71
2023/06/14 09:09:25;;;;;;;35.97;7.50;;;22.30;91.30;;;;;;5082117;28;20046;-71
2023/06/14 09:11:52;;;;;;;17.77;6.45;;;21.70;91.00;;;;;;5092418;28;20055;-70
2023/06/14 09:14:24;;;;;;;31.20;7.35;;;21.30;81.50;;;;;;5086325;28;20048;-70
2023/06/14 09:16:54;;;;;;;39.10;6.70;;;21.40;79.00;;;;;;5071278;28;20048;-70
2023/06/14 09:19:24;;;;;;;13.55;6.13;;;22.30;78.70;;;;;;5080822;28;20050;-70
2023/06/14 09:21:52;;;;;;;18.50;6.47;;;;;;;;;;5071428;28;20044;-70
2023/06/14 09:24:19;;;;;;;102.47;10.85;;;21.70;89.30;;;;;;5076879;28;20107;-68
2023/06/14 09:26:47;;;;;;;14.52;5.82;;;22.00;90.30;;;;;;5092050;28;20040;-70
2023/06/14 09:29:13;;;;;;;12.50;6.50;;;22.90;90.20;;;;;;5080879;28;20044;-70
2023/06/14 09:31:39;;;;;;;14.02;5.97;;;;;;;;;;5092214;28;20178;-70
2023/06/14 09:34:05;;;;;;;15.98;6.15;;;;;;;;;;5090731;28;20115;-71
2023/06/14 09:36:32;;;;;;;12.90;5.30;;;23.30;77.90;;;;;;5071955;28;20048;-74
2023/06/14 09:39:00;;;;;;;14.25;5.97;;;23.30;88.30;;;;;;5086462;28;20408;-71
2023/06/14 09:41:33;;;;;;;14.13;5.43;;;23.40;81.60;;;;;;5091863;28;20040;-71
2023/06/14 09:44:02;;;;;;;20.15;8.77;;;23.00;87.90;;;;;;5090373;28;20044;-71
2023/06/14 09:46:29;;;;;;;9.50;5.30;;;22.50;87.30;;;;;;5072392;28;20051;-71
2023/06/14 09:48:56;;;;;;;17.48;5.88;;;22.90;87.10;;;;;;5067857;28;20050;-68
2023/06/14 09:51:23;;;;;;;20.73;6.47;;;23.80;82.50;;;;;;5074942;28;20507;-70
2023/06/14 09:53:50;;;;;;;20.23;5.70;;;23.10;86.70;;;;;;5083247;28;20089;-71
2023/06/14 09:56:29;;;;;;;13.48;5.45;;;23.50;73.40;;;;;;5081371;28;20048;-71
2023/06/14 09:58:59;;;;;;;11.98;5.47;;;23.70;73.20;;;;;;5064726;28;20097;-71
2023/06/14 10:01:29;;;;;;;10.90;6.13;;;23.60;75.20;;;;;;5058094;28;20044;-71
2023/06/14 10:04:00;;;;;;;12.88;5.70;;;23.30;85.60;;;;;;5091326;28;20050;-68
2023/06/14 10:06:29;;;;;;;29.67;6.90;;;24.40;76.90;;;;;;5089105;28;20035;-67
2023/06/14 10:08:59;;;;;;;17.65;6.13;;;24.20;74.60;;;;;;5093689;28;20278;-67
2023/06/14 10:11:28;;;;;;;20.05;5.95;;;24.50;85.20;;;;;;5092710;28;20047;-67
2023/06/14 10:13:55;;;;;;;42.13;6.97;;;24.70;80.00;;;;;;5095868;28;20086;-68
2023/06/14 10:16:46;;;;;;;21.70;5.55;;;24.20;71.20;;;;;;5094146;28;20120;-67
2023/06/14 10:19:47;;;;;;;12.27;5.47;;;24.30;70.50;;;;;;5084578;28;20040;-68
2023/06/14 10:22:19;;;;;;;16.27;5.33;;;24.40;83.30;;;;;;5096018;28;20040;-68
2023/06/14 10:24:45;;;;;;;;;;;24.40;73.90;;;;;;5087283;28;20112;-68
2023/06/14 10:27:18;;;;;;;12.25;5.60;;;24.30;83.10;;;;;;5095532;28;19989;-68
2023/06/14 10:30:03;;;;;;;17.30;6.10;;;24.60;82.40;;;;;;5095655;28;20056;-68
2023/06/14 10:32:28;;;;;;;14.60;5.70;;;24.00;78.40;;;;;;5084555;28;20050;-67
2023/06/14 10:35:08;;;;;;;14.80;5.50;;;24.80;71.70;;;;;;5073786;28;20040;-68
2023/06/14 10:37:35;;;;;;;18.58;5.88;;;;;;;;;;5083176;28;20043;-68
2023/06/14 10:40:02;;;;;;;26.77;5.95;;;24.90;82.10;;;;;;5079183;28;20434;-68
2023/06/14 10:42:31;;;;;;;24.15;6.20;;;25.20;82.10;;;;;;5057387;28;20476;-69
2023/06/14 10:44:59;;;;;;;20.40;6.15;;;;;;;;;;5076190;28;20498;-68
2023/06/14 10:47:26;;;;;;;19.05;6.28;;;24.80;81.70;;;;;;5095559;28;20435;-68
2023/06/14 10:49:52;;;;;;;16.00;6.07;;;25.20;81.70;;;;;;5081773;28;20057;-69
2023/06/14 10:52:23;;;;;;;26.85;6.07;;;25.60;81.60;;;;;;5074777;28;20492;-68
2023/06/14 10:55:18;;;;;;;19.30;6.72;;;25.50;81.80;;;;;;5074944;28;20448;-68
2023/06/14 10:57:51;;;;;;;20.20;6.43;;;25.40;81.50;;;;;;5074885;28;20048;-68
2023/06/14 11:00:22;;;;;;;14.55;6.07;;;25.30;81.00;;;;;;5074736;28;20381;-68
2023/06/14 11:03:25;;;;;;;15.17;6.00;;;25.20;80.30;;;;;;5091570;28;20109;-68
2023/06/14 11:05:55;;;;;;;15.68;6.10;;;25.80;68.30;;;;;;5080395;28;20043;-67
2023/06/14 11:08:59;;;;;;;24.95;6.18;;;25.70;80.70;;;;;;5094951;28;20484;-67
2023/06/14 11:11:32;;;;;;;14.45;5.85;;;25.90;79.70;;;;;;5094701;28;20518;-67
2023/06/14 11:14:01;;;;;;;15.52;6.88;;;25.20;80.10;;;;;;5094757;28;20044;-70
2023/06/14 11:16:28;;;;;;;18.63;6.20;;;25.40;79.00;;;;;;5094387;28;20040;-71
2023/06/14 11:18:54;;;;;;;20.40;6.63;;;;;;;;;;5094525;28;20431;-71
2023/06/14 11:21:20;;;;;;;23.48;6.47;;;;;;;;;;5094585;28;20038;-71
2023/06/14 11:23:54;;;;;;;20.95;5.90;;;26.20;66.50;;;;;;5094714;28;20043;-71
2023/06/14 11:26:27;;;;;;;16.58;5.88;;;25.90;79.60;;;;;;5094410;28;20496;-71
2023/06/14 11:28:57;;;;;;;51.38;7.40;;;25.30;79.30;;;;;;5077537;28;20043;-71
2023/06/14 11:31:23;;;;;;;17.15;6.20;;;;;;;;;;5094453;28;20377;-71
2023/06/14 11:33:57;;;;;;;15.43;6.28;;;26.20;79.50;;;;;;5095704;28;20036;-71
2023/06/14 11:36:26;;;;;;;17.58;5.85;;;25.90;68.10;;;;;;5094126;28;20039;-71
2023/06/14 11:39:03;;;;;;;17.48;5.70;;;26.50;75.60;;;;;;5094460;28;20451;-71
2023/06/14 11:41:43;;;;;;;19.42;6.05;;;26.40;70.90;;;;;;5094381;28;20376;-70
2023/06/14 11:44:09;;;;;;;12.52;5.50;;;;;;;;;;5077338;28;20117;-68
2023/06/14 11:46:36;;;;;;;23.90;6.82;;;26.10;76.70;;;;;;5093997;28;20038;-67
2023/06/14 11:49:04;;;;;;;15.18;6.05;;;26.50;78.30;;;;;;5078009;28;20387;-67
2023/06/14 11:51:33;;;;;;;14.90;6.10;;;25.70;78.00;;;;;;5093861;28;20048;-67
2023/06/14 11:53:59;;;;;;;20.35;6.03;;;26.40;78.20;;;;;;5093966;28;20048;-68
2023/06/14 11:56:26;;;;;;;25.63;6.88;;;;;;;;;;5077074;28;20044;-68
2023/06/14 11:58:56;;;;;;;21.48;6.00;;;26.60;78.30;;;;;;5077250;28;20044;-68
2023/06/14 12:01:22;;;;;;;18.65;6.38;;;25.80;77.30;;;;;;5071992;28;20041;-68
2023/06/14 12:03:49;;;;;;;28.92;6.43;;;26.80;77.70;;;;;;5093616;28;20473;-68
2023/06/14 12:06:15;;;;;;;13.05;5.45;;;26.30;76.80;;;;;;5094258;28;20042;-68
2023/06/14 12:08:45;;;;;;;17.05;6.50;;;26.80;70.50;;;;;;5093753;28;20059;-68
2023/06/14 12:11:14;;;;;;;25.98;6.32;;;26.80;77.30;;;;;;5093595;28;20048;-68
2023/06/14 12:13:41;;;;;;;17.80;5.85;;;27.00;75.20;;;;;;5095000;28;20051;-68
2023/06/14 12:16:11;;;;;;;19.65;5.90;;;26.30;76.20;;;;;;5093811;28;20040;-70
2023/06/14 12:18:39;;;;;;;14.82;5.70;;;26.70;67.20;;;;;;5094640;28;20054;-71
2023/06/14 12:21:06;;;;;;;15.48;5.80;;;26.50;76.00;;;;;;5059951;28;20548;-71
2023/06/14 12:23:46;;;;;;;34.53;6.25;;;26.70;76.10;;;;;;5093452;28;20036;-71
2023/06/14 12:26:16;;;;;;;21.13;6.03;;;27.30;76.20;;;;;;5093313;28;20047;-71
2023/06/14 12:28:44;;;;;;;13.10;5.70;;;27.10;75.70;;;;;;5092685;28;20044;-68
2023/06/14 12:31:12;;;;;;;15.70;5.40;;;27.40;75.60;;;;;;5093178;28;20036;-68
2023/06/14 12:33:38;;;;;;;17.92;5.72;;;;;;;;;;5076990;28;20044;-68
2023/06/14 12:36:05;;;;;;;31.15;6.63;;;27.50;75.70;;;;;;5076868;28;20711;-71
2023/06/14 12:38:32;;;;;;;12.38;5.70;;;;;;;;;;5076186;28;20101;-72
2023/06/14 12:40:57;;;;;;;22.38;5.63;;;27.70;75.40;;;;;;5093415;28;20036;-71
2023/06/14 12:43:23;;;;;;;19.48;5.90;;;27.60;74.80;;;;;;5093169;28;20506;-67
2023/06/14 12:45:49;;;;;;;148.68;12.75;;;27.80;74.80;;;;;;5093319;28;20445;-68
2023/06/14 12:48:15;;;;;;;125.60;13.02;;;;;;;;;;5059248;28;20032;-68
2023/06/14 12:50:41;;;;;;;12.07;5.53;;;28.20;74.40;;;;;;5061760;28;20049;-68
2023/06/14 12:53:07;;;;;;;13.95;5.30;;;27.70;74.20;;;;;;5075846;28;20349;-68
2023/06/14 12:55:33;;;;;;;13.07;5.00;;;28.10;74.60;;;;;;5075912;28;20115;-68
2023/06/14 12:57:58;;;;;;;15.90;5.38;;;27.50;65.30;;;;;;5091928;28;20464;-69
2023/06/14 13:00:25;;;;;;;17.67;5.28;;;28.10;73.90;;;;;;5090991;28;20044;-68
2023/06/14 13:02:52;;;;;;;18.00;5.47;;;;;;;;;;5074231;28;20048;-69
2023/06/14 13:05:18;;;;;;;18.92;7.40;;;27.90;75.50;;;;;;5092529;28;20057;-68
2023/06/14 13:07:44;;;;;;;20.85;8.30;;;27.80;77.30;;;;;;5092513;28;20040;-68
2023/06/14 13:10:10;;;;;;;25.90;8.38;;;26.60;72.10;;;;;;5092523;28;20048;-68
2023/06/14 13:12:36;;;;;;;19.00;7.15;;;27.30;79.80;;;;;;5092789;28;20173;-68
2023/06/14 13:15:02;;;;;;;24.48;8.82;;;27.80;73.00;;;;;;5075898;28;20399;-69
2023/06/14 13:17:28;;;;;;;21.13;7.55;;;26.70;80.20;;;;;;5092707;28;20054;-69
2023/06/14 13:19:54;;;;;;;26.85;7.97;;;27.30;81.10;;;;;;5092561;28;20398;-68
2023/06/14 13:22:20;;;;;;;26.38;8.20;;;26.40;81.20;;;;;;5075934;28;20086;-68